Petersburg, Texas
Current Conditions -  °F | °C
As of 3:53 AM on Saturday 25 Oct 2014 (Local Time) from KLBB Reporting Station
Clear Clear  
Wind Chill: 55°   Ceiling: Unl
Heat Index: 55°   Visibility: 10mi
Dew Point: 48°   Wind: 7mph
Humidity: 77%   Direction: 260°W
Pressure: 30.16"   Gusts: NA
Location:  33.87°N, 101.6°W
Report Text: KLBB 250853Z 26006KT 10SM CLR 13/09 A3016 RMK AO2 SLP172 T01280089 50001
Loading
Personal Weather Stations






























Interactive Weather Map
Tropical Storm Tracking
New forecast layout! Learn more

10-Day Weather Forecast

Advertisements
Track Severe Weather on mobile